createdAt,value
2018-11-01T00:02:34.142Z,101491.76
2018-11-01T00:05:38.040Z,101484.68
2018-11-01T00:08:41.462Z,101496.26
2018-11-01T00:11:45.001Z,101501.52
2018-11-01T00:14:48.473Z,101505.49
2018-11-01T00:17:51.946Z,101512.49
2018-11-01T00:20:55.445Z,101509.07
2018-11-01T00:23:58.862Z,101509.34
2018-11-01T00:27:02.353Z,101510.21
2018-11-01T00:30:06.467Z,101515.08
2018-11-01T00:33:09.995Z,101516.67
2018-11-01T00:36:13.514Z,101512.64
2018-11-01T00:39:16.982Z,101505.84
2018-11-01T00:42:20.368Z,101513.29
2018-11-01T00:45:23.810Z,101511.00
2018-11-01T00:48:27.320Z,101502.36
2018-11-01T00:51:31.001Z,101493.87
2018-11-01T00:54:34.506Z,101495.13
2018-11-01T00:57:38.120Z,101493.96
2018-11-01T01:00:41.664Z,101490.46
2018-11-01T01:03:45.258Z,101486.79
2018-11-01T01:06:48.753Z,101504.82
2018-11-01T01:09:52.224Z,101500.96
2018-11-01T01:12:55.686Z,101504.67
2018-11-01T01:15:59.110Z,101523.78
2018-11-01T01:19:02.606Z,101520.12
2018-11-01T01:22:06.405Z,101510.80
2018-11-01T01:25:11.982Z,101505.39
2018-11-01T01:28:15.500Z,101504.45
2018-11-01T01:31:18.894Z,101498.65
2018-11-01T01:34:22.342Z,101494.77
2018-11-01T01:37:25.827Z,101491.29
2018-11-01T01:40:29.301Z,101489.90
2018-11-01T01:43:32.693Z,101486.23
2018-11-01T01:46:36.181Z,101485.15
2018-11-01T01:49:39.581Z,101480.91
2018-11-01T01:52:43.704Z,101472.83
2018-11-01T01:55:47.116Z,101472.08
2018-11-01T01:58:50.526Z,101472.25
2018-11-01T02:01:53.916Z,101457.05
2018-11-01T02:04:57.302Z,101448.35
2018-11-01T02:08:00.733Z,101448.80
2018-11-01T02:11:04.497Z,101441.88
2018-11-01T02:14:07.923Z,101432.96
2018-11-01T02:17:11.356Z,101443.13
2018-11-01T02:20:16.056Z,101434.32
2018-11-01T02:23:19.493Z,101441.46
2018-11-01T02:26:22.934Z,101425.68
2018-11-01T02:29:26.368Z,101412.95
2018-11-01T02:32:29.750Z,101413.77
2018-11-01T02:35:33.223Z,101416.48
2018-11-01T02:38:36.742Z,101424.55
2018-11-01T02:41:40.412Z,101424.58
2018-11-01T02:44:43.937Z,101423.13
2018-11-01T02:47:47.465Z,101421.19
2018-11-01T02:50:50.958Z,101424.44
2018-11-01T02:53:54.460Z,101427.15
2018-11-01T02:56:58.007Z,101433.02
2018-11-01T03:00:01.750Z,101448.52
2018-11-01T03:03:05.590Z,101456.29
2018-11-01T03:06:09.080Z,101444.50
2018-11-01T03:09:12.612Z,101445.58
2018-11-01T03:12:16.095Z,101452.26
2018-11-01T03:15:19.592Z,101447.03
2018-11-01T03:18:23.130Z,101443.62
2018-11-01T03:21:26.524Z,101437.80
2018-11-01T03:24:29.980Z,101422.16
2018-11-01T03:27:34.530Z,101417.74
2018-11-01T03:30:38.276Z,101424.36
2018-11-01T03:33:41.754Z,101421.63
2018-11-01T03:36:45.409Z,101432.06
2018-11-01T03:39:48.992Z,101429.54
2018-11-01T03:42:52.449Z,101422.03
2018-11-01T03:45:55.989Z,101430.92
2018-11-01T03:48:59.563Z,101433.02
2018-11-01T03:52:03.115Z,101451.07
2018-11-01T03:55:08.734Z,101446.66
2018-11-01T03:58:14.308Z,101448.22
2018-11-01T04:01:17.778Z,101449.77
2018-11-01T04:04:21.316Z,101445.86
2018-11-01T04:07:24.818Z,101448.35
2018-11-01T04:10:28.292Z,101447.55
2018-11-01T04:13:35.102Z,101450.26
2018-11-01T04:16:38.858Z,101443.40
2018-11-01T04:19:42.169Z,101420.83
2018-11-01T04:22:45.688Z,101412.12
2018-11-01T04:25:49.367Z,101415.31
2018-11-01T04:28:52.911Z,101421.02
2018-11-01T04:31:56.387Z,101401.80
2018-11-01T04:34:59.877Z,101397.32
2018-11-01T04:38:03.412Z,101404.65
2018-11-01T04:41:06.970Z,101403.90
2018-11-01T04:44:10.553Z,101404.68
2018-11-01T04:47:14.074Z,101396.86
2018-11-01T04:50:17.658Z,101396.86
2018-11-01T04:53:21.111Z,101398.94
2018-11-01T04:56:24.635Z,101401.86
2018-11-01T04:59:28.105Z,101401.26
2018-11-01T05:02:31.624Z,101402.82
2018-11-01T05:05:35.127Z,101398.53
2018-11-01T05:08:38.646Z,101396.46
2018-11-01T05:11:42.133Z,101395.51
2018-11-01T05:14:45.623Z,101395.42
2018-11-01T05:17:49.226Z,101396.50
2018-11-01T05:20:52.740Z,101401.92
2018-11-01T05:23:56.349Z,101389.90
2018-11-01T05:26:59.857Z,101393.43
2018-11-01T05:30:03.510Z,101391.76
2018-11-01T05:33:07.991Z,101383.25
2018-11-01T05:36:11.479Z,101387.89
2018-11-01T05:39:15.046Z,101392.65
2018-11-01T05:42:18.824Z,101397.38
2018-11-01T05:45:22.355Z,101391.21
2018-11-01T05:48:25.813Z,101393.32
2018-11-01T05:51:29.383Z,101400.19
2018-11-01T05:54:32.902Z,101397.07
2018-11-01T05:57:36.638Z,101381.83
2018-11-01T06:00:40.420Z,101375.76
2018-11-01T06:03:43.937Z,101373.08
2018-11-01T06:06:47.482Z,101368.31
2018-11-01T06:09:50.941Z,101379.48
2018-11-01T06:12:54.489Z,101385.87
2018-11-01T06:15:57.982Z,101396.42
2018-11-01T06:19:01.440Z,101388.80
2018-11-01T06:22:04.961Z,101389.03
2018-11-01T06:25:09.408Z,101399.92
2018-11-01T06:28:12.922Z,101415.29
2018-11-01T06:31:16.395Z,101420.03
2018-11-01T06:34:27.398Z,101421.27
2018-11-01T06:37:31.903Z,101410.17
2018-11-01T06:40:35.454Z,101407.08
2018-11-01T06:43:39.038Z,101406.64
2018-11-01T06:46:42.608Z,101411.26
2018-11-01T06:49:46.083Z,101415.00
2018-11-01T06:52:49.587Z,101418.90
2018-11-01T06:55:53.086Z,101415.93
2018-11-01T06:58:56.652Z,101405.58
2018-11-01T07:02:00.263Z,101400.17
2018-11-01T07:05:03.752Z,101390.86
2018-11-01T07:08:07.212Z,101384.06
2018-11-01T07:11:10.841Z,101382.93
2018-11-01T07:14:14.328Z,101393.10
2018-11-01T07:17:17.909Z,101401.19
2018-11-01T07:20:21.320Z,101394.87
2018-11-01T07:23:24.870Z,101390.30
2018-11-01T07:26:28.514Z,101387.05
2018-11-01T07:29:31.945Z,101392.18
2018-11-01T07:32:35.552Z,101396.56
2018-11-01T07:35:38.925Z,101400.01
2018-11-01T07:38:42.484Z,101394.42
2018-11-01T07:41:45.925Z,101389.72
2018-11-01T07:44:49.425Z,101378.71
2018-11-01T07:47:52.959Z,101373.04
2018-11-01T07:50:56.433Z,101366.52
2018-11-01T07:53:59.955Z,101370.01
2018-11-01T07:57:03.497Z,101363.80
2018-11-01T08:00:11.228Z,101361.09
2018-11-01T08:03:14.646Z,101356.78
2018-11-01T08:06:18.356Z,101359.00
2018-11-01T08:09:21.909Z,101370.01
2018-11-01T08:12:25.401Z,101376.61
2018-11-01T08:15:28.864Z,101381.81
2018-11-01T08:18:32.406Z,101386.47
2018-11-01T08:21:35.910Z,101397.80
2018-11-01T08:24:39.416Z,101403.42
2018-11-01T08:27:43.475Z,101414.32
2018-11-01T08:30:46.907Z,101417.07
2018-11-01T08:33:50.432Z,101425.46
2018-11-01T08:36:54.044Z,101461.93
2018-11-01T08:39:58.744Z,101459.44
2018-11-01T08:43:02.251Z,101455.35
2018-11-01T08:46:06.558Z,101468.57
2018-11-01T08:49:11.036Z,101472.05
2018-11-01T08:52:14.489Z,101472.26
2018-11-01T08:55:17.995Z,101476.26
2018-11-01T08:58:21.565Z,101477.80
2018-11-01T09:01:25.126Z,101494.93
2018-11-01T09:04:28.644Z,101499.64
2018-11-01T09:07:32.120Z,101509.61
2018-11-01T09:10:35.654Z,101507.41
2018-11-01T09:13:39.036Z,101497.73
2018-11-01T09:16:42.900Z,101511.11
2018-11-01T09:19:46.282Z,101523.16
2018-11-01T09:22:49.686Z,101506.58
2018-11-01T09:25:53.092Z,101497.88
2018-11-01T09:28:56.590Z,101497.56
2018-11-01T09:32:00.050Z,101522.39
2018-11-01T09:35:03.855Z,101545.37
2018-11-01T09:38:07.318Z,101524.53
2018-11-01T09:41:12.990Z,101523.96
2018-11-01T09:44:16.469Z,101529.32
2018-11-01T09:47:20.165Z,101521.26
2018-11-01T09:50:23.347Z,101517.50
2018-11-01T09:53:26.771Z,101537.95
2018-11-01T09:56:30.178Z,101549.63
2018-11-01T09:59:33.553Z,101544.16
2018-11-01T10:02:37.027Z,101528.79
2018-11-01T10:05:40.503Z,101529.29
2018-11-01T10:08:43.851Z,101518.29
2018-11-01T10:11:47.289Z,101504.31
2018-11-01T10:14:50.713Z,101509.11
2018-11-01T10:17:54.744Z,101496.88
2018-11-01T10:20:57.755Z,101486.05
2018-11-01T10:24:01.456Z,101484.04
2018-11-01T10:27:05.666Z,101458.41
2018-11-01T10:30:11.221Z,101442.21
2018-11-01T10:33:14.712Z,101433.80
2018-11-01T10:36:18.190Z,101433.64
2018-11-01T10:39:22.220Z,101422.79
2018-11-01T10:42:25.659Z,101410.59
2018-11-01T10:45:29.186Z,101407.61
2018-11-01T10:48:32.903Z,101394.87
2018-11-01T10:51:36.497Z,101398.01
2018-11-01T10:54:39.974Z,101410.22
2018-11-01T10:57:43.876Z,101417.05
2018-11-01T11:00:52.770Z,101416.57
2018-11-01T11:03:56.313Z,101399.71
2018-11-01T11:07:00.036Z,101377.08
2018-11-01T11:10:09.227Z,101383.84
2018-11-01T11:13:12.741Z,101391.34
2018-11-01T11:16:16.286Z,101384.08
2018-11-01T11:19:19.963Z,101385.98
2018-11-01T11:22:23.489Z,101397.20
2018-11-01T11:25:28.035Z,101401.37
2018-11-01T11:28:31.581Z,101408.70
2018-11-01T11:31:36.308Z,101437.37
2018-11-01T11:34:40.014Z,101435.50
2018-11-01T11:37:48.147Z,101432.27
2018-11-01T11:40:51.927Z,101437.30
2018-11-01T11:43:56.187Z,101433.47
2018-11-01T11:47:00.169Z,101430.91
2018-11-01T11:50:04.298Z,101416.20
2018-11-01T11:53:08.061Z,101417.14
2018-11-01T11:56:11.643Z,101412.99
2018-11-01T11:59:15.181Z,101417.17
2018-11-01T12:02:19.848Z,101427.25
2018-11-01T12:05:23.674Z,101454.07
2018-11-01T12:08:27.125Z,101479.92
2018-11-01T12:11:31.628Z,101477.95
2018-11-01T12:14:36.017Z,101468.43
2018-11-01T12:17:39.512Z,101472.55
2018-11-01T12:20:43.175Z,101475.99
2018-11-01T12:23:46.660Z,101492.53
2018-11-01T12:26:50.168Z,101496.98
2018-11-01T12:29:56.972Z,101497.91
2018-11-01T12:33:00.599Z,101493.37
2018-11-01T12:36:05.392Z,101502.44
2018-11-01T12:39:09.012Z,101511.87
2018-11-01T12:42:13.652Z,101520.57
2018-11-01T12:45:17.163Z,101519.97
2018-11-01T12:48:20.776Z,101529.27
2018-11-01T12:51:25.256Z,101531.17
2018-11-01T12:54:28.812Z,101523.44
2018-11-01T12:57:32.360Z,101514.43
2018-11-01T13:00:36.072Z,101514.59
2018-11-01T13:03:40.657Z,101524.40
2018-11-01T13:06:44.099Z,101520.89
2018-11-01T13:09:48.606Z,101514.63
2018-11-01T13:12:52.292Z,101507.00
2018-11-01T13:15:55.754Z,101509.59
2018-11-01T13:18:59.476Z,101512.72
2018-11-01T13:22:02.963Z,101515.87
2018-11-01T13:25:08.413Z,101513.82
2018-11-01T13:28:12.039Z,101515.82
2018-11-01T13:31:15.504Z,101505.81
2018-11-01T13:34:19.171Z,101489.47
2018-11-01T13:37:22.813Z,101494.23
2018-11-01T13:40:26.696Z,101498.65
2018-11-01T13:43:30.055Z,101491.39
2018-11-01T13:46:33.641Z,101492.07
2018-11-01T13:49:37.267Z,101494.53
2018-11-01T13:52:41.863Z,101485.11
2018-11-01T13:55:51.957Z,101489.62
2018-11-01T13:58:55.610Z,101497.70
2018-11-01T14:01:59.310Z,101491.32
2018-11-01T14:05:03.217Z,101497.08
2018-11-01T14:08:06.824Z,101480.05
2018-11-01T14:11:10.269Z,101491.50
2018-11-01T14:14:16.096Z,101494.29
2018-11-01T14:17:19.389Z,101492.56
2018-11-01T14:20:23.104Z,101495.34
2018-11-01T14:23:26.672Z,101491.82
2018-11-01T14:26:30.163Z,101489.69
2018-11-01T14:29:33.651Z,101481.92
2018-11-01T14:32:37.233Z,101484.64
2018-11-01T14:35:40.792Z,101490.07
2018-11-01T14:38:44.383Z,101497.36
2018-11-01T14:41:47.909Z,101495.70
2018-11-01T14:44:51.498Z,101501.19
2018-11-01T14:47:55.127Z,101494.73
2018-11-01T14:50:58.630Z,101494.71
2018-11-01T14:54:02.777Z,101483.62
2018-11-01T14:57:07.023Z,101493.86
2018-11-01T15:00:10.448Z,101496.63
2018-11-01T15:03:13.949Z,101492.19
2018-11-01T15:06:17.473Z,101484.93
2018-11-01T15:09:21.023Z,101488.99
2018-11-01T15:12:24.581Z,101492.97
2018-11-01T15:15:28.092Z,101491.10
2018-11-01T15:18:31.694Z,101489.96
2018-11-01T15:21:35.264Z,101494.65
2018-11-01T15:24:39.709Z,101505.50
2018-11-01T15:27:44.069Z,101494.31
2018-11-01T15:30:47.726Z,101495.20
2018-11-01T15:33:52.421Z,101500.56
2018-11-01T15:36:55.960Z,101495.43
2018-11-01T15:40:00.830Z,101491.01
2018-11-01T15:43:05.047Z,101490.57
2018-11-01T15:46:09.334Z,101489.30
2018-11-01T15:49:12.847Z,101491.03
2018-11-01T15:52:16.376Z,101495.77
2018-11-01T15:55:20.903Z,101494.88
2018-11-01T15:58:24.780Z,101495.38
2018-11-01T16:01:28.496Z,101497.37
2018-11-01T16:04:32.083Z,101488.82
2018-11-01T16:07:35.595Z,101485.92
2018-11-01T16:10:39.081Z,101476.88
2018-11-01T16:13:42.704Z,101475.23
2018-11-01T16:16:46.304Z,101476.82
2018-11-01T16:19:49.896Z,101483.87
2018-11-01T16:22:53.408Z,101479.29
2018-11-01T16:25:56.975Z,101484.27
2018-11-01T16:29:01.394Z,101489.49
2018-11-01T16:32:05.025Z,101500.48
2018-11-01T16:35:09.218Z,101506.56
2018-11-01T16:38:12.833Z,101508.64
2018-11-01T16:41:16.339Z,101516.74
2018-11-01T16:44:20.998Z,101518.84
2018-11-01T16:47:25.681Z,101515.39
2018-11-01T16:50:29.335Z,101519.85
2018-11-01T16:53:32.905Z,101519.01
2018-11-01T16:56:36.444Z,101535.77
2018-11-01T16:59:39.950Z,101548.65
2018-11-01T17:02:43.488Z,101549.15
2018-11-01T17:05:47.247Z,101567.76
2018-11-01T17:08:50.867Z,101561.74
2018-11-01T17:11:54.523Z,101565.15
2018-11-01T17:14:58.279Z,101562.38
2018-11-01T17:18:01.811Z,101566.65
2018-11-01T17:21:05.451Z,101571.98
2018-11-01T17:24:09.105Z,101574.10
2018-11-01T17:27:13.685Z,101582.87
2018-11-01T17:30:17.328Z,101596.01
2018-11-01T17:33:20.935Z,101601.02
2018-11-01T17:36:24.599Z,101613.06
2018-11-01T17:39:28.315Z,101612.55
2018-11-01T17:42:31.910Z,101620.85
2018-11-01T17:45:35.476Z,101622.86
2018-11-01T17:48:39.192Z,101622.19
2018-11-01T17:51:42.763Z,101618.40
2018-11-01T17:54:46.437Z,101619.63
2018-11-01T17:57:49.884Z,101632.25
2018-11-01T18:00:53.477Z,101638.52
2018-11-01T18:03:57.572Z,101637.94
2018-11-01T18:07:01.191Z,101643.60
2018-11-01T18:10:05.132Z,101643.37
2018-11-01T18:13:08.693Z,101652.94
2018-11-01T18:16:12.239Z,101650.39
2018-11-01T18:19:16.053Z,101650.73
2018-11-01T18:22:20.785Z,101653.31
2018-11-01T18:25:25.660Z,101655.86
2018-11-01T18:28:29.200Z,101662.24
2018-11-01T18:31:33.945Z,101661.74
2018-11-01T18:34:38.166Z,101672.90
2018-11-01T18:37:42.512Z,101675.32
2018-11-01T18:40:46.182Z,101681.18
2018-11-01T18:43:49.865Z,101682.56
2018-11-01T18:46:53.582Z,101688.52
2018-11-01T18:49:57.097Z,101688.37
2018-11-01T18:53:00.644Z,101697.47
2018-11-01T18:56:05.665Z,101710.93
2018-11-01T18:59:09.225Z,101710.79
2018-11-01T19:02:12.835Z,101715.51
2018-11-01T19:05:16.541Z,101728.08
2018-11-01T19:08:20.092Z,101736.22
2018-11-01T19:11:23.711Z,101732.38
2018-11-01T19:14:27.411Z,101731.56
2018-11-01T19:17:30.940Z,101731.42
2018-11-01T19:20:34.797Z,101742.75
2018-11-01T19:23:45.137Z,101747.11
2018-11-01T19:26:48.999Z,101769.38
2018-11-01T19:29:53.571Z,101772.79
2018-11-01T19:32:57.085Z,101786.11
2018-11-01T19:36:00.557Z,101805.99
2018-11-01T19:39:06.109Z,101850.32
2018-11-01T19:42:09.670Z,101780.24
2018-11-01T19:45:15.256Z,101733.06
2018-11-01T19:48:19.984Z,101747.98
2018-11-01T19:51:23.415Z,101758.29
2018-11-01T19:54:26.929Z,101777.60
2018-11-01T19:57:30.721Z,101774.68
2018-11-01T20:00:34.209Z,101767.68
2018-11-01T20:03:37.711Z,101753.94
2018-11-01T20:06:41.363Z,101762.76
2018-11-01T20:09:44.967Z,101773.22
2018-11-01T20:12:48.832Z,101804.72
2018-11-01T20:15:52.355Z,101806.05
2018-11-01T20:18:55.985Z,101806.20
2018-11-01T20:21:59.480Z,101827.48
2018-11-01T20:25:03.078Z,101787.42
2018-11-01T20:28:07.122Z,101766.32
2018-11-01T20:31:10.842Z,101787.81
2018-11-01T20:34:14.642Z,101801.05
2018-11-01T20:37:18.206Z,101819.15
2018-11-01T20:40:21.687Z,101828.34
2018-11-01T20:43:25.619Z,101835.30
2018-11-01T20:46:29.328Z,101842.82
2018-11-01T20:49:32.907Z,101842.88
2018-11-01T20:52:36.489Z,101844.72
2018-11-01T20:55:40.169Z,101847.25
2018-11-01T20:58:43.994Z,101852.13
2018-11-01T21:01:47.688Z,101857.16
2018-11-01T21:04:51.476Z,101857.38
2018-11-01T21:07:55.045Z,101866.32
2018-11-01T21:10:58.735Z,101862.78
2018-11-01T21:14:02.613Z,101863.68
2018-11-01T21:17:06.615Z,101866.72
2018-11-01T21:20:11.376Z,101868.99
2018-11-01T21:23:20.873Z,101869.59
2018-11-01T21:26:25.563Z,101867.76
2018-11-01T21:29:29.107Z,101876.80
2018-11-01T21:32:32.713Z,101878.95
2018-11-01T21:35:36.267Z,101882.05
2018-11-01T21:38:39.926Z,101877.97
2018-11-01T21:41:43.745Z,101891.77
2018-11-01T21:44:47.449Z,101885.10
2018-11-01T21:47:54.807Z,101895.08
2018-11-01T21:50:58.487Z,101896.35
2018-11-01T21:54:02.109Z,101898.57
2018-11-01T21:57:07.020Z,101895.10
2018-11-01T22:00:11.206Z,101893.79
2018-11-01T22:03:14.804Z,101894.01
2018-11-01T22:06:18.350Z,101900.55
2018-11-01T22:09:21.947Z,101901.21
2018-11-01T22:12:25.958Z,101894.99
2018-11-01T22:15:29.803Z,101902.09
2018-11-01T22:18:33.405Z,101903.17
2018-11-01T22:21:37.181Z,101900.11
2018-11-01T22:24:40.859Z,101915.61
2018-11-01T22:27:44.435Z,101920.85
2018-11-01T22:30:48.206Z,101930.76
2018-11-01T22:33:51.701Z,101928.35
2018-11-01T22:36:55.286Z,101926.84
2018-11-01T22:39:59.073Z,101916.76
2018-11-01T22:43:02.648Z,101914.20
2018-11-01T22:46:06.344Z,101910.77
2018-11-01T22:49:09.852Z,101920.20
2018-11-01T22:52:13.331Z,101920.57
2018-11-01T22:55:16.840Z,101925.10
2018-11-01T22:58:20.746Z,101921.83
2018-11-01T23:01:24.181Z,101925.68
2018-11-01T23:04:27.780Z,101933.82
2018-11-01T23:07:31.317Z,101934.61
2018-11-01T23:10:34.870Z,101942.93
2018-11-01T23:13:38.351Z,101942.58
2018-11-01T23:16:41.929Z,101946.63
2018-11-01T23:19:45.585Z,101955.14
2018-11-01T23:22:49.029Z,101965.03
2018-11-01T23:25:52.573Z,101963.95
2018-11-01T23:28:56.050Z,101958.68
2018-11-01T23:31:59.541Z,101954.40
2018-11-01T23:35:03.051Z,101958.81
2018-11-01T23:38:11.913Z,101954.76
2018-11-01T23:41:20.543Z,101968.99
2018-11-01T23:44:29.310Z,101966.46
2018-11-01T23:47:38.328Z,101966.78
2018-11-01T23:50:46.998Z,101992.17
2018-11-01T23:53:51.509Z,101986.89
2018-11-01T23:56:54.976Z,102001.85
2018-11-01T23:59:58.511Z,102003.22
